Time;durP1;ratioP1;P1;durP2;ratioP2;P2;SDS_P1;SDS_P2;PMS_P1;PMS_P2;Temp;Humidity;BMP_temperature;BMP_pressure;BME280_temperature;BME280_humidity;BME280_pressure;Samples;Min_cycle;Max_cycle;Signal;HPM_P1;HPM_P2
2023/12/25 00:02:16;;;;;;;0.50;0.20;;;11.00;1.00;;;;;;5133542;27;20444;-59
2023/12/25 00:04:43;;;;;;;0.40;0.20;;;11.00;1.00;;;;;;5133999;27;20466;-58
2023/12/25 00:07:11;;;;;;;0.40;0.20;;;11.00;1.00;;;;;;5134881;27;20689;-56
2023/12/25 00:09:38;;;;;;;0.40;0.20;;;11.00;1.00;;;;;;5133527;27;20480;-57
2023/12/25 00:12:07;;;;;;;0.90;0.20;;;11.00;1.00;;;;;;5134605;27;20849;-58
2023/12/25 00:14:35;;;;;;;0.40;0.20;;;11.10;1.00;;;;;;5134570;27;20436;-58
2023/12/25 00:17:02;;;;;;;0.45;0.20;;;11.00;1.00;;;;;;5133881;27;20434;-58
2023/12/25 00:19:29;;;;;;;0.40;0.20;;;11.00;1.00;;;;;;5133806;27;20422;-58
2023/12/25 00:21:58;;;;;;;2.00;0.20;;;11.00;1.00;;;;;;5134782;27;20411;-58
2023/12/25 00:24:25;;;;;;;0.40;0.20;;;11.00;1.00;;;;;;5133568;28;20418;-57
2023/12/25 00:26:52;;;;;;;1.10;0.20;;;11.10;1.00;;;;;;5133405;28;20419;-58
2023/12/25 00:29:20;;;;;;;0.50;0.20;;;11.00;1.00;;;;;;5134072;28;20430;-59
2023/12/25 00:31:48;;;;;;;0.50;0.20;;;11.10;1.00;;;;;;5135373;28;20426;-57
2023/12/25 00:34:16;;;;;;;0.40;0.20;;;11.00;1.00;;;;;;5134626;28;20415;-58
2023/12/25 00:36:43;;;;;;;0.40;0.20;;;11.00;1.00;;;;;;5135178;28;20555;-58
2023/12/25 00:39:10;;;;;;;0.80;0.20;;;11.00;1.00;;;;;;5114356;28;20884;-58
2023/12/25 00:41:37;;;;;;;0.35;0.20;;;11.00;1.00;;;;;;5134233;28;20434;-58
2023/12/25 00:44:04;;;;;;;0.40;0.20;;;11.10;1.00;;;;;;5134357;28;20795;-58
2023/12/25 00:46:32;;;;;;;0.60;0.20;;;11.10;1.00;;;;;;5135162;28;20457;-58
2023/12/25 00:48:59;;;;;;;0.50;0.20;;;11.00;99.90;;;;;;5133832;28;20418;-58
2023/12/25 00:51:26;;;;;;;0.40;0.20;;;11.00;99.90;;;;;;5134302;28;20471;-58
2023/12/25 00:53:54;;;;;;;0.40;0.20;;;11.10;99.90;;;;;;5134487;28;20418;-58
2023/12/25 00:56:21;;;;;;;0.40;0.20;;;11.20;99.90;;;;;;5134243;28;20722;-56
2023/12/25 00:58:48;;;;;;;0.30;0.10;;;11.10;99.90;;;;;;5135279;28;20521;-58
2023/12/25 01:01:15;;;;;;;0.40;0.20;;;11.10;99.90;;;;;;5134678;28;20767;-57
2023/12/25 01:03:43;;;;;;;0.40;0.20;;;11.10;99.90;;;;;;5133730;28;20419;-58
2023/12/25 01:06:10;;;;;;;0.40;0.20;;;11.10;99.90;;;;;;5133627;28;20479;-58
2023/12/25 01:08:37;;;;;;;0.50;0.20;;;11.00;99.90;;;;;;5134467;28;20422;-58
2023/12/25 01:11:06;;;;;;;0.80;0.20;;;11.00;99.90;;;;;;5134955;28;20422;-58
2023/12/25 01:13:33;;;;;;;0.40;0.10;;;11.00;99.90;;;;;;5134487;28;20826;-57
2023/12/25 01:16:00;;;;;;;0.40;0.10;;;11.10;99.90;;;;;;5134344;28;20439;-58
2023/12/25 01:18:27;;;;;;;0.40;0.20;;;11.10;99.90;;;;;;5134677;28;20414;-58
2023/12/25 01:20:55;;;;;;;0.40;0.20;;;11.10;99.90;;;;;;5134383;28;20477;-58
2023/12/25 01:23:22;;;;;;;0.43;0.10;;;11.10;99.90;;;;;;5134488;28;20414;-58
2023/12/25 01:25:49;;;;;;;0.50;0.20;;;11.10;99.90;;;;;;5134418;28;20422;-58
2023/12/25 01:28:16;;;;;;;0.40;0.20;;;11.10;99.90;;;;;;5133838;28;20487;-58
2023/12/25 01:30:43;;;;;;;0.40;0.20;;;11.10;99.90;;;;;;5135386;27;20418;-58
2023/12/25 01:33:10;;;;;;;0.40;0.20;;;11.00;99.90;;;;;;5138636;27;20418;-58
2023/12/25 01:35:37;;;;;;;0.50;0.20;;;11.00;99.90;;;;;;5137685;27;20418;-58
2023/12/25 01:38:06;;;;;;;0.40;0.20;;;11.10;99.90;;;;;;5120142;27;20479;-58
2023/12/25 01:40:33;;;;;;;0.40;0.10;;;11.10;99.90;;;;;;5137394;27;20640;-58
2023/12/25 01:43:00;;;;;;;0.50;0.20;;;11.00;99.90;;;;;;5137232;27;20457;-58
2023/12/25 01:45:27;;;;;;;0.40;0.20;;;11.10;99.90;;;;;;5136225;27;20418;-58
2023/12/25 01:47:55;;;;;;;0.40;0.20;;;11.00;99.90;;;;;;5137119;27;20445;-59
2023/12/25 01:50:22;;;;;;;0.40;0.10;;;10.90;99.90;;;;;;5137190;27;20426;-58
2023/12/25 01:52:49;;;;;;;0.32;0.13;;;10.90;99.90;;;;;;5137377;27;20833;-59
2023/12/25 01:55:18;;;;;;;0.55;0.20;;;10.90;99.90;;;;;;5137994;27;20474;-59
2023/12/25 01:57:45;;;;;;;0.40;0.20;;;10.90;99.90;;;;;;5134935;27;20430;-58
2023/12/25 02:00:13;;;;;;;0.40;0.10;;;10.80;99.90;;;;;;5121127;27;20418;-59
2023/12/25 02:02:40;;;;;;;0.40;0.20;;;10.90;99.90;;;;;;5135457;27;20471;-58
2023/12/25 02:05:08;;;;;;;0.30;0.20;;;10.80;99.90;;;;;;5135037;27;20426;-59
2023/12/25 02:07:38;;;;;;;0.40;0.20;;;10.80;99.90;;;;;;5134409;27;20771;-59
2023/12/25 02:10:07;;;;;;;0.40;0.20;;;10.70;99.90;;;;;;5134986;27;20421;-59
2023/12/25 02:12:36;;;;;;;0.40;0.20;;;10.80;99.90;;;;;;5136315;27;20495;-60
2023/12/25 02:15:03;;;;;;;1.00;0.20;;;10.90;99.90;;;;;;5135634;27;20419;-59
2023/12/25 02:17:31;;;;;;;0.40;0.20;;;10.90;99.90;;;;;;5137023;27;20872;-57
2023/12/25 02:19:59;;;;;;;0.40;0.10;;;10.90;99.90;;;;;;5136316;27;20429;-58
2023/12/25 02:22:26;;;;;;;0.95;0.20;;;10.80;99.90;;;;;;5136648;27;20422;-56
2023/12/25 02:25:00;;;;;;;0.30;0.20;;;10.70;99.90;;;;;;5136629;27;20410;-58
2023/12/25 02:27:28;;;;;;;0.45;0.10;;;10.80;99.90;;;;;;5136199;27;20403;-58
2023/12/25 02:29:55;;;;;;;0.50;0.20;;;10.90;99.90;;;;;;5135937;27;20414;-58
2023/12/25 02:32:23;;;;;;;0.60;0.20;;;10.90;99.90;;;;;;5136606;27;20954;-57
2023/12/25 02:34:50;;;;;;;0.50;0.20;;;10.80;99.90;;;;;;5136343;27;20471;-59
2023/12/25 02:37:18;;;;;;;0.30;0.10;;;10.80;99.90;;;;;;5136900;27;20430;-57
2023/12/25 02:39:45;;;;;;;0.30;0.10;;;10.80;99.90;;;;;;5137022;27;20406;-58
2023/12/25 02:42:12;;;;;;;0.40;0.20;;;10.80;99.90;;;;;;5137150;27;20467;-57
2023/12/25 02:44:40;;;;;;;0.40;0.10;;;10.80;99.90;;;;;;5135973;27;20429;-56
2023/12/25 02:47:07;;;;;;;0.50;0.20;;;10.80;99.90;;;;;;5133462;27;20426;-56
2023/12/25 02:49:34;;;;;;;0.40;0.20;;;10.90;99.90;;;;;;5135996;27;20448;-58
2023/12/25 02:52:01;;;;;;;0.40;0.20;;;10.80;99.90;;;;;;5133847;27;20435;-58
2023/12/25 02:54:28;;;;;;;0.38;0.10;;;10.80;99.90;;;;;;5134951;27;20476;-59
2023/12/25 02:56:55;;;;;;;0.50;0.20;;;10.80;99.90;;;;;;5136265;27;20959;-59
2023/12/25 02:59:22;;;;;;;0.30;0.17;;;10.80;99.90;;;;;;5135749;27;20959;-58
2023/12/25 03:01:51;;;;;;;0.30;0.10;;;10.70;99.90;;;;;;5136032;27;20537;-58
2023/12/25 03:04:18;;;;;;;1.00;0.10;;;10.80;99.90;;;;;;5136323;27;20909;-57
2023/12/25 03:06:45;;;;;;;0.60;0.20;;;10.80;99.90;;;;;;5133999;27;20554;-57
2023/12/25 03:09:12;;;;;;;0.32;0.10;;;10.80;99.90;;;;;;5120249;27;20416;-58
2023/12/25 03:11:39;;;;;;;0.40;0.10;;;10.80;99.90;;;;;;5135210;27;20420;-58
2023/12/25 03:14:06;;;;;;;0.38;0.20;;;10.80;99.90;;;;;;5134139;27;20426;-58
2023/12/25 03:16:33;;;;;;;0.40;0.10;;;10.80;99.90;;;;;;5133751;27;20535;-58
2023/12/25 03:19:02;;;;;;;0.30;0.20;;;10.70;99.90;;;;;;5134334;27;20427;-58
2023/12/25 03:21:29;;;;;;;0.40;0.10;;;10.80;99.90;;;;;;5134693;27;20480;-58
2023/12/25 03:23:56;;;;;;;0.32;0.10;;;10.70;99.90;;;;;;5134079;27;20430;-59
2023/12/25 03:26:23;;;;;;;0.40;0.10;;;10.70;99.90;;;;;;5134511;27;20833;-59
2023/12/25 03:28:50;;;;;;;0.40;0.10;;;10.60;99.90;;;;;;5134928;27;20418;-58
2023/12/25 03:31:17;;;;;;;0.30;0.20;;;10.70;99.90;;;;;;5134124;27;20506;-58
2023/12/25 03:33:44;;;;;;;0.30;0.20;;;10.60;99.90;;;;;;5134756;27;20431;-56
2023/12/25 03:36:12;;;;;;;0.38;0.10;;;10.60;99.90;;;;;;5134885;27;20468;-58
2023/12/25 03:38:41;;;;;;;0.60;0.20;;;10.60;99.90;;;;;;5136270;27;20430;-59
2023/12/25 03:41:09;;;;;;;0.40;0.20;;;10.60;99.90;;;;;;5135493;27;20622;-57
2023/12/25 03:43:36;;;;;;;0.40;0.10;;;10.60;99.90;;;;;;5135633;27;20462;-57
2023/12/25 03:46:03;;;;;;;0.60;0.20;;;10.70;96.70;;;;;;5135784;27;20423;-58
2023/12/25 03:48:30;;;;;;;0.30;0.10;;;10.70;99.90;;;;;;5134636;27;20417;-58
2023/12/25 03:50:57;;;;;;;0.75;0.10;;;10.60;91.80;;;;;;5136279;27;20426;-57
2023/12/25 03:53:26;;;;;;;0.30;0.20;;;10.60;98.70;;;;;;5134941;27;20833;-58
2023/12/25 03:55:53;;;;;;;0.30;0.10;;;10.60;99.90;;;;;;5135277;27;20816;-58
2023/12/25 03:58:20;;;;;;;0.57;0.20;;;10.60;99.90;;;;;;5135574;27;20841;-59
2023/12/25 04:00:47;;;;;;;0.30;0.10;;;10.60;89.00;;;;;;5135661;27;20923;-59
2023/12/25 04:03:14;;;;;;;0.40;0.20;;;10.80;80.30;;;;;;5135341;27;20767;-57
2023/12/25 04:05:41;;;;;;;0.32;0.10;;;10.70;86.70;;;;;;5135889;27;20529;-57
2023/12/25 04:08:08;;;;;;;0.50;0.10;;;10.80;91.00;;;;;;5134303;27;20857;-58
2023/12/25 04:10:37;;;;;;;0.40;0.15;;;10.80;57.00;;;;;;5134810;27;20779;-57
2023/12/25 04:13:04;;;;;;;0.30;0.10;;;10.70;82.00;;;;;;5134466;27;20520;-58
2023/12/25 04:15:31;;;;;;;0.38;0.20;;;10.80;59.90;;;;;;5134548;27;20725;-58
2023/12/25 04:17:58;;;;;;;0.30;0.10;;;10.70;87.80;;;;;;5134190;27;20453;-57
2023/12/25 04:20:25;;;;;;;0.50;0.10;;;10.80;72.90;;;;;;5135094;27;20437;-56
2023/12/25 04:22:52;;;;;;;0.60;0.10;;;10.70;58.50;;;;;;5133130;27;20435;-56
2023/12/25 04:25:19;;;;;;;0.60;0.20;;;10.70;69.30;;;;;;5133864;28;20470;-57
2023/12/25 04:27:48;;;;;;;0.40;0.10;;;10.70;68.40;;;;;;5133900;28;20436;-56
2023/12/25 04:30:15;;;;;;;0.40;0.20;;;10.60;56.90;;;;;;5133729;28;20418;-56
2023/12/25 04:32:42;;;;;;;0.40;0.20;;;10.60;39.70;;;;;;5133295;28;20471;-57
2023/12/25 04:35:08;;;;;;;0.40;0.10;;;10.70;59.80;;;;;;5133959;28;20425;-58
2023/12/25 04:37:35;;;;;;;0.60;0.20;;;10.70;44.60;;;;;;5131763;27;20466;-60
2023/12/25 04:40:02;;;;;;;0.30;0.10;;;10.70;49.80;;;;;;5136231;27;20485;-57
2023/12/25 04:42:29;;;;;;;0.50;0.13;;;10.60;41.10;;;;;;5141474;27;20734;-58
2023/12/25 04:44:58;;;;;;;0.30;0.10;;;10.60;48.40;;;;;;5134554;28;20830;-55
2023/12/25 04:47:25;;;;;;;0.40;0.15;;;10.60;54.50;;;;;;5131606;28;20483;-57
2023/12/25 04:49:52;;;;;;;0.40;0.10;;;10.70;56.10;;;;;;5132905;28;20865;-56
2023/12/25 04:52:19;;;;;;;0.30;0.10;;;10.70;39.80;;;;;;5130123;27;20449;-57
2023/12/25 04:54:46;;;;;;;0.50;0.20;;;10.70;47.00;;;;;;5132761;28;20918;-59
2023/12/25 04:57:13;;;;;;;0.40;0.10;;;10.70;36.90;;;;;;5132339;28;20521;-58
2023/12/25 04:59:40;;;;;;;0.40;0.20;;;10.70;35.00;;;;;;5130669;28;20434;-58
2023/12/25 05:02:08;;;;;;;0.40;0.10;;;10.70;26.40;;;;;;5114317;28;20438;-57
2023/12/25 05:04:36;;;;;;;0.30;0.20;;;10.60;31.40;;;;;;5132188;27;20434;-58
2023/12/25 05:07:04;;;;;;;0.30;0.10;;;10.50;35.60;;;;;;5130012;27;20433;-57
2023/12/25 05:09:31;;;;;;;0.30;0.20;;;10.50;39.10;;;;;;5115417;27;20801;-58
2023/12/25 05:11:58;;;;;;;0.30;0.10;;;10.60;51.60;;;;;;5137065;27;20510;-58
2023/12/25 05:14:25;;;;;;;0.30;0.10;;;10.50;31.00;;;;;;5138455;27;20422;-58
2023/12/25 05:16:52;;;;;;;0.30;0.10;;;10.40;27.00;;;;;;5097240;28;20433;-58
2023/12/25 05:19:21;;;;;;;0.70;0.10;;;10.50;30.80;;;;;;5096773;28;20426;-58
2023/12/25 05:21:48;;;;;;;0.50;0.10;;;10.60;30.00;;;;;;5094663;28;20433;-56
2023/12/25 05:24:14;;;;;;;0.80;0.10;;;10.60;28.40;;;;;;5095557;28;20441;-57
2023/12/25 05:26:41;;;;;;;0.45;0.20;;;10.50;30.80;;;;;;5095630;28;20511;-56
2023/12/25 05:29:08;;;;;;;0.30;0.10;;;10.50;30.00;;;;;;5096730;28;20995;-58
2023/12/25 05:31:35;;;;;;;0.43;0.10;;;10.50;37.50;;;;;;5097281;28;20433;-57
2023/12/25 05:34:02;;;;;;;0.30;0.10;;;10.50;45.70;;;;;;5092914;28;20487;-56
2023/12/25 05:36:30;;;;;;;0.40;0.20;;;10.50;39.30;;;;;;5083907;28;20441;-58
2023/12/25 05:38:57;;;;;;;0.60;0.20;;;10.50;35.10;;;;;;5075634;28;20448;-57
2023/12/25 05:41:24;;;;;;;0.40;0.20;;;10.40;30.00;;;;;;5077285;28;20493;-58
2023/12/25 05:43:51;;;;;;;0.30;0.10;;;10.40;44.60;;;;;;5075568;28;20423;-57
2023/12/25 05:46:18;;;;;;;0.40;0.10;;;10.40;50.10;;;;;;5076283;28;20481;-57
2023/12/25 05:48:45;;;;;;;0.50;0.20;;;10.30;49.90;;;;;;5075158;28;20897;-57
2023/12/25 05:51:12;;;;;;;0.30;0.10;;;10.40;55.90;;;;;;5071705;28;20414;-58
2023/12/25 05:53:40;;;;;;;0.40;0.20;;;10.30;42.70;;;;;;5095711;28;20437;-58
2023/12/25 05:56:07;;;;;;;0.60;0.20;;;10.30;55.00;;;;;;5096551;28;20509;-58
2023/12/25 05:58:34;;;;;;;0.40;0.17;;;10.20;79.40;;;;;;5096967;28;20441;-57
2023/12/25 06:01:02;;;;;;;0.80;0.17;;;10.30;70.20;;;;;;5096012;28;20764;-58
2023/12/25 06:03:29;;;;;;;0.30;0.10;;;10.30;52.60;;;;;;5096097;28;20421;-56
2023/12/25 06:05:58;;;;;;;0.40;0.10;;;10.40;68.70;;;;;;5094705;28;20438;-58
2023/12/25 06:08:25;;;;;;;0.40;0.20;;;10.40;42.00;;;;;;5096056;28;20908;-58
2023/12/25 06:10:54;;;;;;;0.40;0.20;;;10.40;45.50;;;;;;5094807;28;20495;-57
2023/12/25 06:13:21;;;;;;;0.40;0.20;;;10.40;33.50;;;;;;5095990;28;20426;-57
2023/12/25 06:15:48;;;;;;;0.40;0.20;;;10.30;40.30;;;;;;5106256;28;20459;-58
2023/12/25 06:18:15;;;;;;;2.10;0.10;;;10.20;40.80;;;;;;5116499;28;20520;-58
2023/12/25 06:20:42;;;;;;;0.40;0.20;;;10.30;61.70;;;;;;5115909;28;20424;-55
2023/12/25 06:23:09;;;;;;;0.40;0.20;;;10.30;53.20;;;;;;5115614;28;20420;-56
2023/12/25 06:25:36;;;;;;;0.40;0.20;;;10.30;43.20;;;;;;5116277;28;20433;-57
2023/12/25 06:28:05;;;;;;;0.50;0.20;;;10.30;48.10;;;;;;5116073;28;20420;-58
2023/12/25 06:30:33;;;;;;;0.40;0.10;;;10.30;36.40;;;;;;5115313;28;20480;-58
2023/12/25 06:33:00;;;;;;;0.40;0.13;;;10.30;42.80;;;;;;5115814;28;20496;-58
2023/12/25 06:35:28;;;;;;;0.80;0.10;;;10.40;28.50;;;;;;5115207;28;20442;-58
2023/12/25 06:37:55;;;;;;;0.30;0.10;;;10.40;35.90;;;;;;5115651;28;20439;-57
2023/12/25 06:40:22;;;;;;;0.30;0.10;;;10.30;49.20;;;;;;5115253;28;20424;-58
2023/12/25 06:42:49;;;;;;;0.40;0.13;;;10.40;54.00;;;;;;5114910;28;20419;-57
2023/12/25 06:45:17;;;;;;;0.47;0.20;;;10.50;54.10;;;;;;5114812;28;20834;-58
2023/12/25 06:47:44;;;;;;;0.40;0.10;;;10.50;39.50;;;;;;5114034;28;20424;-58
2023/12/25 06:50:11;;;;;;;0.60;0.13;;;10.40;38.30;;;;;;5114710;28;20427;-58
2023/12/25 06:52:40;;;;;;;0.40;0.20;;;10.30;30.30;;;;;;5114474;28;20428;-58
2023/12/25 06:55:08;;;;;;;0.30;0.10;;;10.20;27.10;;;;;;5106939;28;20443;-57
2023/12/25 06:57:36;;;;;;;0.40;0.20;;;10.20;34.40;;;;;;5115873;28;20467;-56
2023/12/25 07:00:04;;;;;;;0.50;0.20;;;10.20;30.00;;;;;;5115533;28;20762;-58
2023/12/25 07:02:32;;;;;;;0.40;0.20;;;10.30;33.20;;;;;;5114898;28;20773;-57
2023/12/25 07:05:00;;;;;;;0.40;0.20;;;10.20;27.90;;;;;;5115772;28;20431;-58
2023/12/25 07:07:27;;;;;;;0.47;0.20;;;10.10;23.10;;;;;;5116062;28;20778;-58
2023/12/25 07:09:53;;;;;;;0.40;0.20;;;10.10;25.80;;;;;;5114514;28;20421;-58
2023/12/25 07:12:20;;;;;;;0.40;0.20;;;10.00;36.30;;;;;;5115390;28;20465;-58
2023/12/25 07:14:47;;;;;;;0.98;0.20;;;10.00;42.80;;;;;;5115807;28;20539;-57
2023/12/25 07:17:14;;;;;;;0.80;0.20;;;10.20;54.90;;;;;;5114339;28;20427;-58
2023/12/25 07:19:43;;;;;;;0.80;0.20;;;10.10;39.20;;;;;;5114186;28;20420;-56
2023/12/25 07:22:11;;;;;;;0.40;0.20;;;10.10;57.80;;;;;;5113751;28;20412;-58
2023/12/25 07:24:41;;;;;;;0.40;0.20;;;10.20;61.90;;;;;;5113130;28;20978;-58
2023/12/25 07:27:09;;;;;;;0.40;0.20;;;10.20;52.40;;;;;;5114096;28;20420;-56
2023/12/25 07:29:36;;;;;;;0.40;0.20;;;10.20;45.30;;;;;;5113075;28;20477;-56
2023/12/25 07:32:03;;;;;;;0.30;0.10;;;10.20;41.00;;;;;;5114879;28;20420;-57
2023/12/25 07:34:31;;;;;;;0.40;0.20;;;10.30;47.10;;;;;;5115185;28;20420;-57
2023/12/25 07:37:00;;;;;;;0.40;0.20;;;10.30;27.60;;;;;;5115061;28;20861;-57
2023/12/25 07:39:27;;;;;;;0.50;0.20;;;10.40;20.70;;;;;;5114260;28;20468;-58
2023/12/25 07:41:55;;;;;;;0.90;0.20;;;10.30;20.00;;;;;;5114679;28;20427;-58
2023/12/25 07:44:22;;;;;;;0.40;0.20;;;10.30;20.60;;;;;;5113408;28;20506;-58
2023/12/25 07:46:49;;;;;;;0.40;0.20;;;10.20;32.00;;;;;;5114979;28;20416;-57
2023/12/25 07:49:17;;;;;;;0.40;0.20;;;10.30;30.10;;;;;;5112951;28;20507;-56
2023/12/25 07:51:44;;;;;;;0.30;0.10;;;10.40;35.20;;;;;;5114891;28;20439;-57
2023/12/25 07:54:12;;;;;;;0.47;0.20;;;10.40;24.40;;;;;;5114081;28;20420;-58
2023/12/25 07:56:39;;;;;;;0.40;0.20;;;10.50;26.30;;;;;;5114867;28;20420;-58
2023/12/25 07:59:06;;;;;;;0.40;0.20;;;10.50;11.60;;;;;;5115353;28;21029;-57
2023/12/25 08:01:33;;;;;;;0.40;0.20;;;10.40;22.40;;;;;;5114965;28;20491;-58
2023/12/25 08:04:02;;;;;;;0.40;0.20;;;10.40;12.10;;;;;;5114663;28;20531;-56
2023/12/25 08:06:29;;;;;;;0.50;0.20;;;10.30;14.20;;;;;;5114583;28;20413;-58
2023/12/25 08:08:56;;;;;;;0.40;0.20;;;10.30;18.30;;;;;;5114317;28;20420;-58
2023/12/25 08:11:25;;;;;;;0.40;0.20;;;10.30;25.90;;;;;;5113813;28;20423;-58
2023/12/25 08:13:52;;;;;;;1.80;0.20;;;10.20;11.70;;;;;;5114586;28;20519;-58
2023/12/25 08:16:19;;;;;;;0.50;0.20;;;10.30;24.00;;;;;;5113826;28;20428;-58
2023/12/25 08:18:46;;;;;;;1.20;0.20;;;10.30;36.90;;;;;;5113837;28;20428;-58
2023/12/25 08:21:13;;;;;;;0.47;0.20;;;10.40;32.30;;;;;;5114076;28;20424;-58
2023/12/25 08:23:41;;;;;;;0.50;0.20;;;10.50;27.20;;;;;;5113259;28;20431;-56
2023/12/25 08:26:09;;;;;;;0.73;0.20;;;10.50;22.20;;;;;;5112572;28;20458;-58
2023/12/25 08:28:38;;;;;;;0.50;0.20;;;10.60;24.30;;;;;;5110287;28;20842;-58
2023/12/25 08:31:05;;;;;;;0.40;0.20;;;10.50;17.90;;;;;;5111867;28;20424;-58
2023/12/25 08:33:32;;;;;;;0.40;0.20;;;10.50;16.30;;;;;;5100917;28;20521;-58
2023/12/25 08:35:59;;;;;;;0.60;0.20;;;10.50;24.50;;;;;;5109171;28;20428;-58
2023/12/25 08:38:26;;;;;;;0.30;0.10;;;10.60;29.00;;;;;;5099320;28;20964;-58
2023/12/25 08:40:53;;;;;;;0.50;0.20;;;10.60;27.10;;;;;;5098001;28;20853;-57
2023/12/25 08:43:20;;;;;;;0.40;0.20;;;10.70;11.60;;;;;;5096665;28;20421;-58
2023/12/25 08:45:49;;;;;;;0.40;0.17;;;10.70;12.60;;;;;;5117238;28;20423;-57
2023/12/25 08:48:16;;;;;;;0.50;0.20;;;10.70;16.00;;;;;;5117331;28;20432;-58
2023/12/25 08:50:43;;;;;;;0.60;0.20;;;10.70;28.50;;;;;;5117606;28;20424;-58
2023/12/25 08:53:10;;;;;;;0.40;0.20;;;10.70;30.90;;;;;;5117835;28;20416;-57
2023/12/25 08:55:37;;;;;;;0.50;0.20;;;10.70;19.70;;;;;;5117797;28;20431;-57
2023/12/25 08:58:04;;;;;;;0.40;0.20;;;10.70;17.10;;;;;;5117569;28;20443;-58
2023/12/25 09:00:31;;;;;;;0.40;0.20;;;10.80;22.10;;;;;;5118035;28;20420;-58
2023/12/25 09:03:00;;;;;;;0.50;0.20;;;10.80;24.90;;;;;;5117387;28;20432;-58
2023/12/25 09:05:27;;;;;;;0.40;0.20;;;10.80;16.60;;;;;;5117105;28;20423;-58
2023/12/25 09:07:54;;;;;;;0.40;0.20;;;10.80;17.20;;;;;;5118313;28;20423;-57
2023/12/25 09:10:21;;;;;;;0.40;0.20;;;10.90;35.70;;;;;;5114793;28;20439;-56
2023/12/25 09:12:50;;;;;;;0.60;0.20;;;10.80;28.60;;;;;;5116588;28;20416;-58
2023/12/25 09:15:17;;;;;;;0.90;0.20;;;11.00;40.10;;;;;;5116618;28;20442;-58
2023/12/25 09:17:45;;;;;;;0.40;0.20;;;11.00;32.20;;;;;;5117687;28;20424;-56
2023/12/25 09:20:14;;;;;;;0.40;0.20;;;10.90;29.90;;;;;;5117587;28;20424;-58
2023/12/25 09:22:41;;;;;;;0.40;0.20;;;10.80;36.60;;;;;;5117263;28;20427;-57
2023/12/25 09:25:08;;;;;;;0.40;0.20;;;10.90;55.00;;;;;;5117445;28;20473;-58
2023/12/25 09:27:35;;;;;;;0.40;0.20;;;11.10;50.30;;;;;;5117360;28;20788;-58
2023/12/25 09:30:02;;;;;;;0.40;0.20;;;11.20;44.40;;;;;;5113627;28;20432;-58
2023/12/25 09:32:29;;;;;;;0.40;0.20;;;11.10;44.90;;;;;;5116296;28;20432;-58
2023/12/25 09:34:56;;;;;;;0.50;0.20;;;11.10;50.00;;;;;;5116874;28;20443;-57
2023/12/25 09:37:26;;;;;;;0.40;0.10;;;11.30;51.70;;;;;;5116459;28;20430;-57
2023/12/25 09:39:53;;;;;;;0.50;0.20;;;11.40;58.40;;;;;;5117159;28;20553;-57
2023/12/25 09:42:20;;;;;;;0.40;0.20;;;11.50;53.40;;;;;;5117267;28;20412;-57
2023/12/25 09:44:50;;;;;;;0.40;0.20;;;11.50;53.10;;;;;;5116882;28;20420;-57
2023/12/25 09:47:17;;;;;;;0.50;0.20;;;11.50;47.50;;;;;;5116259;28;20424;-58
2023/12/25 09:49:46;;;;;;;0.40;0.20;;;11.40;53.80;;;;;;5116193;28;20427;-57
2023/12/25 09:52:14;;;;;;;0.40;0.20;;;11.30;66.20;;;;;;5114831;28;20427;-58
2023/12/25 09:54:44;;;;;;;0.50;0.20;;;11.20;97.20;;;;;;5116929;28;20416;-58
2023/12/25 09:57:13;;;;;;;0.50;0.20;;;11.40;99.70;;;;;;5116069;28;20757;-58
2023/12/25 09:59:42;;;;;;;0.40;0.20;;;11.50;97.80;;;;;;5117112;28;20527;-58
2023/12/25 10:02:10;;;;;;;0.40;0.20;;;11.60;99.90;;;;;;5116301;28;20507;-58
2023/12/25 10:04:40;;;;;;;0.50;0.20;;;11.60;95.00;;;;;;5119716;27;20485;-58
2023/12/25 10:07:07;;;;;;;0.40;0.20;;;11.40;99.90;;;;;;5115603;28;20866;-58
2023/12/25 10:09:34;;;;;;;0.40;0.20;;;11.30;99.90;;;;;;5116507;28;20989;-59
2023/12/25 10:12:04;;;;;;;0.50;0.20;;;11.30;99.90;;;;;;5113450;28;20809;-57
2023/12/25 10:14:31;;;;;;;0.38;0.10;;;11.20;99.90;;;;;;5114827;28;20423;-58
2023/12/25 10:16:59;;;;;;;0.32;0.17;;;11.20;99.90;;;;;;5096536;28;20426;-58
2023/12/25 10:19:26;;;;;;;0.40;0.20;;;11.10;99.90;;;;;;5114159;28;20467;-58
2023/12/25 10:21:53;;;;;;;0.40;0.20;;;11.20;99.90;;;;;;5113954;28;20481;-57
2023/12/25 10:24:26;;;;;;;0.40;0.20;;;11.30;99.90;;;;;;5106323;28;20429;-58
2023/12/25 10:26:57;;;;;;;0.30;0.10;;;11.50;99.90;;;;;;5095627;28;20425;-58
2023/12/25 10:29:35;;;;;;;0.30;0.20;;;11.60;99.90;;;;;;5108125;28;20485;-57
2023/12/25 10:32:17;;;;;;;0.40;0.20;;;11.70;99.90;;;;;;5104629;28;20516;-57
2023/12/25 10:34:45;;;;;;;0.40;0.20;;;11.50;99.90;;;;;;5094787;28;21117;-57
2023/12/25 10:37:12;;;;;;;0.30;0.10;;;11.40;99.90;;;;;;5094144;28;20508;-57
2023/12/25 10:39:40;;;;;;;0.60;0.20;;;11.40;99.90;;;;;;5093758;28;20438;-58
2023/12/25 10:42:08;;;;;;;0.30;0.13;;;11.40;99.90;;;;;;5094322;28;20417;-58
2023/12/25 10:44:39;;;;;;;0.30;0.10;;;11.50;99.90;;;;;;5096683;27;20509;-58
2023/12/25 10:47:10;;;;;;;0.30;0.20;;;11.60;99.90;;;;;;5119029;27;20436;-58
2023/12/25 10:49:39;;;;;;;0.40;0.20;;;11.70;99.90;;;;;;5115005;28;20432;-58
2023/12/25 10:52:07;;;;;;;0.30;0.20;;;11.80;99.90;;;;;;5111992;28;20768;-58
2023/12/25 10:54:35;;;;;;;0.40;0.20;;;11.80;99.90;;;;;;5133812;27;20799;-58
2023/12/25 10:57:04;;;;;;;0.32;0.20;;;11.80;99.90;;;;;;5134665;27;20865;-57
2023/12/25 10:59:35;;;;;;;0.30;0.10;;;11.90;99.90;;;;;;5118861;27;20865;-58
2023/12/25 11:02:06;;;;;;;0.40;0.17;;;11.90;99.90;;;;;;5119830;27;20487;-58
2023/12/25 11:04:34;;;;;;;0.40;0.20;;;11.90;99.90;;;;;;5112922;27;20439;-58
2023/12/25 11:07:03;;;;;;;0.70;0.10;;;11.90;99.90;;;;;;5113179;27;20450;-58
2023/12/25 11:09:31;;;;;;;0.40;0.10;;;11.90;99.90;;;;;;5114094;27;20485;-56
2023/12/25 11:11:59;;;;;;;0.70;0.10;;;12.00;1.00;;;;;;5112497;28;20493;-57
2023/12/25 11:14:28;;;;;;;0.60;0.10;;;12.10;99.90;;;;;;5106308;28;20431;-58
2023/12/25 11:16:56;;;;;;;0.60;0.10;;;12.10;99.90;;;;;;5087281;28;20520;-57
2023/12/25 11:19:25;;;;;;;0.30;0.10;;;12.20;99.90;;;;;;5090411;28;20563;-58
2023/12/25 11:21:53;;;;;;;0.50;0.20;;;12.30;99.90;;;;;;5090176;28;20876;-58
2023/12/25 11:24:20;;;;;;;0.35;0.10;;;12.30;99.90;;;;;;5088033;28;20434;-58
2023/12/25 11:26:48;;;;;;;0.70;0.10;;;12.20;99.90;;;;;;5091378;28;20432;-59
2023/12/25 11:29:17;;;;;;;0.30;0.10;;;12.30;99.90;;;;;;5078095;28;20422;-59
2023/12/25 11:31:46;;;;;;;0.40;0.10;;;12.30;1.00;;;;;;5091502;28;20475;-56
2023/12/25 11:34:20;;;;;;;0.40;0.10;;;12.30;99.90;;;;;;5094230;28;20429;-58
2023/12/25 11:36:52;;;;;;;0.30;0.10;;;12.30;99.90;;;;;;5087543;28;20417;-58
2023/12/25 11:39:19;;;;;;;0.35;0.10;;;12.40;99.90;;;;;;5087901;28;20701;-58
2023/12/25 11:41:47;;;;;;;0.30;0.10;;;12.30;1.00;;;;;;5092540;28;20421;-58
2023/12/25 11:44:17;;;;;;;0.35;0.10;;;12.30;1.00;;;;;;5089161;28;20440;-58
2023/12/25 11:46:46;;;;;;;0.30;0.10;;;12.20;1.00;;;;;;5094427;28;20453;-58
2023/12/25 11:49:14;;;;;;;0.30;0.10;;;12.10;1.00;;;;;;5084183;28;20925;-57
2023/12/25 11:51:46;;;;;;;0.40;0.10;;;12.00;1.00;;;;;;5090083;28;20418;-58
2023/12/25 11:54:15;;;;;;;0.50;0.10;;;12.00;1.00;;;;;;5088751;28;21051;-58
2023/12/25 11:56:43;;;;;;;0.50;0.10;;;12.10;1.00;;;;;;5091537;28;20425;-58
2023/12/25 11:59:10;;;;;;;0.30;0.10;;;12.00;1.00;;;;;;5086310;28;20437;-58
2023/12/25 12:01:39;;;;;;;0.30;0.10;;;11.90;1.00;;;;;;5091534;28;20525;-58
2023/12/25 12:04:07;;;;;;;0.40;0.20;;;11.90;1.00;;;;;;5081324;28;20726;-58
2023/12/25 12:06:34;;;;;;;0.30;0.10;;;12.00;1.00;;;;;;5092941;28;20413;-58
2023/12/25 12:09:01;;;;;;;0.40;0.10;;;12.10;1.00;;;;;;5084455;28;20433;-59
2023/12/25 12:11:29;;;;;;;0.30;0.10;;;12.20;1.00;;;;;;5102270;28;20483;-57
2023/12/25 12:13:56;;;;;;;0.30;0.10;;;12.10;1.00;;;;;;5079412;28;21195;-57
2023/12/25 12:16:25;;;;;;;0.30;0.10;;;12.00;1.00;;;;;;5113487;27;20428;-58
2023/12/25 12:18:53;;;;;;;0.50;0.10;;;11.90;1.00;;;;;;5092543;28;20418;-58
2023/12/25 12:21:21;;;;;;;0.30;0.10;;;11.90;1.00;;;;;;5104088;28;20408;-57
2023/12/25 12:23:48;;;;;;;0.30;0.10;;;11.80;1.00;;;;;;5112274;28;20440;-58
2023/12/25 12:26:16;;;;;;;0.30;0.20;;;11.70;1.00;;;;;;5112222;28;20539;-55
2023/12/25 12:28:46;;;;;;;0.40;0.17;;;11.70;1.00;;;;;;5111659;28;20440;-58
2023/12/25 12:31:13;;;;;;;0.40;0.10;;;11.80;1.00;;;;;;5106576;28;20422;-58
2023/12/25 12:33:42;;;;;;;0.30;0.10;;;11.90;1.00;;;;;;5108150;28;20435;-57
2023/12/25 12:36:09;;;;;;;0.40;0.20;;;11.90;1.00;;;;;;5112560;28;20839;-58
2023/12/25 12:38:39;;;;;;;0.40;0.10;;;11.90;11.30;;;;;;5109913;28;20447;-57
2023/12/25 12:41:06;;;;;;;0.40;0.10;;;11.80;18.20;;;;;;5110098;28;20431;-58
2023/12/25 12:43:33;;;;;;;0.30;0.10;;;11.90;99.90;;;;;;5109561;28;20420;-57
2023/12/25 12:46:16;;;;;;;0.30;0.10;;;11.90;99.90;;;;;;5105583;28;20434;-58
2023/12/25 12:48:44;;;;;;;0.30;0.10;;;12.00;99.90;;;;;;5105948;28;20477;-57
2023/12/25 12:51:12;;;;;;;0.30;0.10;;;12.00;99.90;;;;;;5112078;28;20774;-58